Flight Track Log - Related Links

Times and Time Zones

All times are in EDT time to prevent confusion due to time zone crossing. See the AAR8734 flight status page for this flight to view local times or setup timezone preferences in your user account.

Time Position Orientation Groundspeed Altitude Reporting Facility
EDT Latitude Longitude Course Direction KTS MPH feet Rate Location/Type
Tue 10:26:00 PM 35.4630 127.4314 346° North  Level Estimated
Tue 10:27:00 PM 35.5409 127.4082 346° North  Level Estimated
Tue 10:28:00 PM 35.6188 127.3850 346° North  Level Estimated
Tue 10:29:00 PM 35.6966 127.3617 346° North  Level Estimated
Tue 10:30:00 PM 35.7745 127.3383 346° North  Level Estimated
Tue 10:31:00 PM 35.8524 127.3150 346° North  Level Estimated
Tue 10:32:00 PM 35.9302 127.2916 346° North  Level Estimated
Tue 10:33:00 PM 36.0081 127.2681 346° North  Level Estimated
Tue 10:34:00 PM 36.0859 127.2446 346° North  Level Estimated
Tue 10:35:00 PM 36.1638 127.2210 346° North  Level Estimated
Tue 10:36:00 PM 36.2416 127.1974 346° North  Level Estimated
Tue 10:37:00 PM 36.3195 127.1738 346° North  Level Estimated
Tue 10:38:00 PM 36.3973 127.1501 346° North  Level Estimated
Tue 10:39:00 PM 36.4751 127.1263 346° North  Level Estimated
Tue 10:40:00 PM 36.5529 127.1025 346° North  Level Estimated
Tue 10:41:00 PM 36.6307 127.0787 346° North  Level Estimated
Tue 10:42:00 PM 36.7086 127.0548 346° North  Level Estimated
Tue 10:42:15 PM 36.5100 127.0000 346° North 358 412 17,800  Level FlightAware ADS-B
Tue 10:42:55 PM 36.5680 126.9970 358° North 354 407 17,500 -1,309 Descending FlightAware ADS-B
Tue 10:43:00 PM 36.7864 127.0309 346° North  Level Estimated
Tue 10:43:10 PM 36.5970 127.0070 15° North 366 421 16,600  Level FlightAware ADS-B
Tue 10:43:25 PM 36.6140 127.0210 33° Northeast 367 422 16,400 -226 Descending FlightAware ADS-B
Tue 10:44:03 PM 36.6580 127.0620 37° Northeast 367 422 16,400  Level FlightAware ADS-B
Tue 10:44:39 PM 36.6990 127.1010 37° Northeast 367 422 16,400  Level FlightAware ADS-B
Tue 10:45:40 PM 36.7690 127.1670 37° Northeast 367 422 16,400  Level FlightAware ADS-B
Tue 10:46:18 PM 36.8130 127.2080 37° Northeast 367 422 16,400  Level FlightAware ADS-B
Tue 10:46:52 PM 36.8520 127.2450 37° Northeast 367 422 16,400 -1,106 Level FlightAware ADS-B
Tue 10:48:55 PM 37.0710 127.3280 333° Northwest 13,300 -1,311 Descending FlightAware ADS-B
Tue 10:49:00 PM 37.0043 127.1478 333° Northwest  Level Estimated
Tue 10:49:55 PM 37.1510 127.3060 348° North 268 308 12,400  Level FlightAware ADS-B
Tue 10:50:36 PM 37.1900 127.2600 317° Northwest 298 343 12,400  Level FlightAware ADS-B
Tue 10:51:20 PM 37.2370 127.2040 317° Northwest 299 344 12,400  Level FlightAware ADS-B
Tue 10:51:55 PM 37.2730 127.1600 316° Northwest 301 346 12,400  Level FlightAware ADS-B
Tue 10:52:36 PM 37.3140 127.1100 316° Northwest 305 351 12,400 -370 Level FlightAware ADS-B
Tue 10:53:16 PM 37.3460 127.0510 304° West 295 339 11,900 -900 Descending FlightAware ADS-B
Tue 10:53:56 PM 37.3780 126.9950 306° West 300 345 11,200 -918 Descending FlightAware ADS-B
Tue 10:54:41 PM 37.4130 126.9300 304° West 295 339 10,600 -847 Descending FlightAware ADS-B
Tue 10:55:21 PM 37.4330 126.8700 293° West 273 314 10,000 -1,029 Descending FlightAware ADS-B
Tue 10:55:51 PM 37.4460 126.8280 291° West 272 313 9,400 -1,200 Descending FlightAware ADS-B
Tue 10:56:01 PM 37.4520 126.8100 293° West 274 315 9,200 -1,650 Descending FlightAware ADS-B
Tue 10:56:31 PM 37.4660 126.7650 291° West 276 318 8,300 -1,733 Descending FlightAware ADS-B
Tue 10:56:46 PM 37.4730 126.7450 294° West 277 319 7,900 -1,200 Descending FlightAware ADS-B
Tue 10:57:16 PM 37.4900 126.6980 295° West 263 303 7,400 -873 Descending FlightAware ADS-B
Tue 10:57:41 PM 37.5110 126.6710 314° West 240 276 7,100 -507 Descending FlightAware ADS-B
Tue 10:58:27 PM 37.5410 126.6320 314° West 235 270 6,800 -391 Descending FlightAware ADS-B
Tue 11:01:00 PM 37.5583 126.7906 82° East  Level Estimated
Tue 11:02:00 PM 37.5583 126.7906 288° West  Level Estimated
Tue 11:03:00 PM 37.5583 126.7906 288° West  Level Estimated
Tue 11:04:00 PM 37.5583 126.7906 288° West  Level Estimated
Tue 11:05:00 PM 37.5583 126.7906 288° West  Level Estimated
Tue 11:06:00 PM 37.5583 126.7906 288° West  Level Estimated
Tue 11:07:00 PM 37.5583 126.7906 288° West  Level Estimated
Tue 11:08:00 PM 37.5583 126.7906 288° West  Level Estimated
Tue 11:09:00 PM 37.5583 126.7906 288° West  Level Estimated

Login

Don't have an account? Register now (free) for customized features, flight alerts, and more!